Skidmore, Texas
Current Conditions -  °F | °C
As of 7:15 AM on Thursday 27 Nov 2014 (Local Time) from KBEA Reporting Station
Clear Clear  
Wind Chill: 45°   Ceiling: Unl
Heat Index: 50°   Visibility: 10mi
Dew Point: 38°   Wind: 10mph
Humidity: 65%   Direction: 40°NE
Pressure: 30.41"   Gusts: NA
Location:  28.25°N, 97.69°W
Report Text: KBEA 271315Z AUTO 04009KT 10SM CLR 10/04 A3041 RMK AO2 T00980035
Loading
Personal Weather Stations






























Interactive Weather Map New forecast layout! Learn more

10-Day Weather Forecast

Advertisements
Track Severe Weather on mobile